Terminal Aerodrome Forecast
Issued by NWS Buffalo, NY

Current Version | Previous Version | Text Only | Print | Product List | Glossary On
Versions: 1 2 3 4 5 6 7 8 9 10 11 12 13 14 15 16 17 18 19 20 21 22 23 24
843
FTUS41 KBUF 291730
TAFART
TAF
KART 291730Z 2918/3018 17007G17KT P6SM VCSH OVC025
     FM292100 17011KT P6SM BKN050
     FM292300 17010G16KT P6SM SCT250
     FM300600 15011G20KT P6SM BKN060
     FM300800 16013G23KT P6SM VCSH OVC060
     FM301200 18010G17KT P6SM BKN070
     FM301700 18014G23KT P6SM VCSH BKN060=

USA.gov is the U.S. government's official web portal to all federal, state and local government web resources and services.